Time;durP1;ratioP1;P1;durP2;ratioP2;P2;SDS_P1;SDS_P2;PMS_P1;PMS_P2;Temp;Humidity;BMP_temperature;BMP_pressure;BME280_temperature;BME280_humidity;BME280_pressure;Samples;Min_cycle;Max_cycle;Signal;HPM_P1;HPM_P2
2022/03/12 00:01:43;;;;;;;16.90;11.18;;;1.70;1.00;;;;;;6243965;22;20197;-83
2022/03/12 00:04:11;;;;;;;14.13;11.02;;;1.70;1.00;;;;;;6220029;22;20196;-83
2022/03/12 00:06:38;;;;;;;15.85;11.65;;;1.60;1.00;;;;;;6245884;22;20193;-83
2022/03/12 00:09:05;;;;;;;13.35;11.40;;;1.60;1.00;;;;;;6245258;22;20209;-83
2022/03/12 00:11:34;;;;;;;14.57;11.05;;;1.60;1.00;;;;;;6245549;22;20236;-83
2022/03/12 00:14:03;;;;;;;14.70;11.73;;;1.60;1.00;;;;;;6245536;22;20189;-83
2022/03/12 00:16:30;;;;;;;14.32;11.20;;;1.50;1.00;;;;;;6245646;22;20352;-83
2022/03/12 00:18:58;;;;;;;16.98;12.30;;;1.50;1.00;;;;;;6246421;22;20231;-83
2022/03/12 00:21:28;;;;;;;18.88;12.18;;;1.50;1.00;;;;;;6248339;22;20231;-82
2022/03/12 00:24:00;;;;;;;17.02;12.70;;;1.50;1.00;;;;;;6247415;22;20255;-83
2022/03/12 00:26:29;;;;;;;18.63;11.52;;;1.50;1.00;;;;;;6245015;22;21073;-83
2022/03/12 00:28:56;;;;;;;17.75;12.15;;;1.40;1.00;;;;;;6244321;22;20272;-82
2022/03/12 00:31:26;;;;;;;14.45;11.57;;;1.40;1.00;;;;;;6245478;22;20602;-83
2022/03/12 00:33:53;;;;;;;13.43;10.27;;;1.40;1.00;;;;;;6247756;22;20189;-83
2022/03/12 00:36:20;;;;;;;16.67;11.93;;;1.30;1.00;;;;;;6248393;22;20290;-83
2022/03/12 00:38:48;;;;;;;14.65;12.23;;;1.30;1.00;;;;;;6263548;22;20193;-83
2022/03/12 00:41:18;;;;;;;16.23;10.73;;;1.30;1.00;;;;;;6261308;22;20189;-82
2022/03/12 00:43:47;;;;;;;16.73;12.23;;;1.20;1.00;;;;;;6244042;22;20248;-83
2022/03/12 00:46:14;;;;;;;16.13;11.20;;;1.20;1.00;;;;;;6243906;22;20684;-83
2022/03/12 00:48:41;;;;;;;14.57;11.07;;;1.20;1.00;;;;;;6242460;22;20194;-83
2022/03/12 00:51:09;;;;;;;16.58;10.45;;;1.10;1.00;;;;;;6217414;22;20197;-83
2022/03/12 00:53:38;;;;;;;15.43;10.07;;;1.10;1.00;;;;;;6247679;22;20760;-83
2022/03/12 00:56:07;;;;;;;14.80;11.50;;;1.00;1.00;;;;;;6242050;22;20946;-83
2022/03/12 00:58:35;;;;;;;17.83;11.35;;;1.00;1.00;;;;;;6245807;22;20252;-83
2022/03/12 01:01:02;;;;;;;17.58;12.27;;;1.00;1.00;;;;;;6242031;22;20205;-83
2022/03/12 01:03:29;;;;;;;15.95;11.38;;;0.90;1.00;;;;;;6243800;22;20193;-84
2022/03/12 01:05:59;;;;;;;15.70;11.30;;;0.90;1.00;;;;;;6242936;22;20316;-84
2022/03/12 01:08:29;;;;;;;14.80;10.05;;;0.80;1.00;;;;;;6246252;22;20192;-83
2022/03/12 01:10:59;;;;;;;13.88;10.50;;;0.80;1.00;;;;;;6219427;22;20210;-83
2022/03/12 01:13:28;;;;;;;14.32;10.95;;;0.80;1.00;;;;;;6241806;22;20208;-83
2022/03/12 01:15:55;;;;;;;19.60;11.20;;;0.80;1.00;;;;;;6218107;22;20189;-82
2022/03/12 01:18:24;;;;;;;18.65;11.20;;;0.70;1.00;;;;;;6247292;22;20645;-82
2022/03/12 01:20:51;;;;;;;16.75;12.23;;;0.70;1.00;;;;;;6245255;22;20209;-82
2022/03/12 01:23:19;;;;;;;16.25;10.05;;;0.70;1.00;;;;;;6244815;22;20185;-82
2022/03/12 01:25:47;;;;;;;12.77;10.82;;;0.60;1.00;;;;;;6246612;22;20196;-82
2022/03/12 01:28:17;;;;;;;13.65;10.15;;;0.60;1.00;;;;;;6246380;22;20193;-82
2022/03/12 01:30:45;;;;;;;12.75;10.27;;;0.60;1.00;;;;;;6244418;22;21233;-82
2022/03/12 01:33:12;;;;;;;15.73;9.70;;;0.50;1.00;;;;;;6217134;22;20186;-82
2022/03/12 01:35:40;;;;;;;17.42;12.50;;;0.50;1.00;;;;;;6245976;22;20196;-82
2022/03/12 01:38:07;;;;;;;13.98;10.27;;;0.40;1.00;;;;;;6244728;22;20200;-83
2022/03/12 01:40:35;;;;;;;16.50;11.00;;;0.40;1.00;;;;;;6247595;22;20193;-82
2022/03/12 01:43:02;;;;;;;13.32;10.35;;;0.30;1.00;;;;;;6269651;22;20997;-81
2022/03/12 01:45:29;;;;;;;14.38;10.90;;;0.30;1.00;;;;;;6246059;22;20181;-81
2022/03/12 01:48:01;;;;;;;13.57;10.05;;;0.30;1.00;;;;;;6267850;22;20201;-82
2022/03/12 01:50:34;;;;;;;14.93;10.20;;;0.30;1.00;;;;;;6256993;22;20224;-82
2022/03/12 01:53:04;;;;;;;14.70;10.65;;;0.20;1.00;;;;;;6245371;22;20667;-82
2022/03/12 01:55:31;;;;;;;17.48;11.35;;;0.20;1.00;;;;;;6245601;22;20218;-82
2022/03/12 01:58:01;;;;;;;16.75;10.07;;;0.20;1.00;;;;;;6243735;22;20246;-82
2022/03/12 02:00:30;;;;;;;14.35;10.13;;;0.20;1.00;;;;;;6244343;22;20189;-82
2022/03/12 02:02:58;;;;;;;15.43;11.07;;;0.10;1.00;;;;;;6244222;22;20200;-82
2022/03/12 02:05:27;;;;;;;13.90;10.57;;;0.10;1.00;;;;;;6246697;22;20189;-82
2022/03/12 02:07:57;;;;;;;14.30;11.05;;;0.10;1.00;;;;;;6220061;22;20197;-82
2022/03/12 02:10:24;;;;;;;16.35;11.45;;;0.10;1.00;;;;;;6249563;22;20212;-82
2022/03/12 02:12:51;;;;;;;15.75;11.30;;;0.10;1.00;;;;;;6262892;22;20199;-81
2022/03/12 02:15:21;;;;;;;17.10;11.77;;;0.10;1.00;;;;;;6226418;22;20197;-81
2022/03/12 02:17:48;;;;;;;13.07;10.75;;;0.10;1.00;;;;;;6243174;22;20276;-82
2022/03/12 02:20:21;;;;;;;17.55;11.75;;;0.10;1.00;;;;;;6243843;22;20193;-83
2022/03/12 02:22:53;;;;;;;15.55;11.00;;;0.00;1.00;;;;;;6249581;22;20189;-81
2022/03/12 02:25:27;;;;;;;15.35;10.63;;;0.00;1.00;;;;;;6244175;22;20251;-82
2022/03/12 02:27:54;;;;;;;17.45;11.98;;;0.00;1.00;;;;;;6243676;22;20298;-82
2022/03/12 02:30:22;;;;;;;17.17;11.25;;;0.00;1.00;;;;;;6243859;22;20260;-82
2022/03/12 02:32:58;;;;;;;15.65;11.23;;;0.00;1.00;;;;;;6257119;22;20186;-82
2022/03/12 02:35:33;;;;;;;17.23;10.70;;;0.00;1.00;;;;;;6251279;22;20227;-82
2022/03/12 02:38:00;;;;;;;17.50;11.57;;;0.00;1.00;;;;;;6243143;22;20193;-83
2022/03/12 02:40:28;;;;;;;13.57;10.55;;;-0.10;1.00;;;;;;6217524;22;20181;-83
2022/03/12 02:42:58;;;;;;;19.83;10.77;;;-0.10;1.00;;;;;;6243282;22;20189;-82
2022/03/12 02:45:27;;;;;;;15.43;10.52;;;-0.10;1.00;;;;;;6244253;22;20189;-82
2022/03/12 02:47:55;;;;;;;14.07;10.45;;;-0.10;1.00;;;;;;6244987;22;20197;-82
2022/03/12 02:50:23;;;;;;;16.67;11.63;;;0.00;1.00;;;;;;6241553;22;20514;-83
2022/03/12 02:52:50;;;;;;;17.80;11.90;;;-0.10;1.00;;;;;;6243418;22;20207;-83
2022/03/12 02:55:19;;;;;;;17.50;11.98;;;-0.10;1.00;;;;;;6246357;22;20189;-82
2022/03/12 02:57:49;;;;;;;13.80;10.43;;;-0.10;1.00;;;;;;6244263;22;20678;-82
2022/03/12 03:00:18;;;;;;;15.27;11.15;;;-0.10;1.00;;;;;;6251432;22;20212;-82
2022/03/12 03:02:53;;;;;;;12.85;10.13;;;-0.10;1.00;;;;;;6250845;22;20189;-82
2022/03/12 03:05:35;;;;;;;16.80;11.55;;;-0.10;1.00;;;;;;6221624;22;20275;-82
2022/03/12 03:08:04;;;;;;;12.93;10.70;;;-0.10;1.00;;;;;;6245290;22;20204;-82
2022/03/12 03:10:34;;;;;;;14.57;10.45;;;-0.20;1.00;;;;;;6247413;22;21073;-82
2022/03/12 03:13:32;;;;;;;16.60;11.18;;;-0.20;1.00;;;;;;6248298;22;20247;-82
2022/03/12 03:16:04;;;;;;;14.90;11.10;;;-0.20;1.00;;;;;;6205473;22;20189;-82
2022/03/12 03:18:33;;;;;;;16.38;10.98;;;-0.30;1.00;;;;;;6248953;22;20193;-82
2022/03/12 03:21:01;;;;;;;18.05;11.00;;;-0.20;1.00;;;;;;6248723;22;20205;-82
2022/03/12 03:23:30;;;;;;;15.23;11.88;;;-0.30;1.00;;;;;;6226487;22;20244;-82
2022/03/12 03:25:59;;;;;;;15.60;10.90;;;-0.30;1.00;;;;;;6256867;22;20193;-81
2022/03/12 03:28:26;;;;;;;18.05;10.90;;;-0.30;1.00;;;;;;6258034;22;20199;-82
2022/03/12 03:30:55;;;;;;;14.60;11.45;;;-0.30;1.00;;;;;;6241120;22;20197;-81
2022/03/12 03:33:24;;;;;;;14.18;11.52;;;-0.30;1.00;;;;;;6281643;22;20185;-81
2022/03/12 03:35:54;;;;;;;15.85;11.38;;;-0.30;1.00;;;;;;6254700;22;20245;-81
2022/03/12 03:38:22;;;;;;;18.98;12.55;;;-0.40;1.00;;;;;;6280447;22;20178;-82
2022/03/12 03:40:49;;;;;;;18.95;11.82;;;-0.40;1.00;;;;;;6279722;22;20169;-82
2022/03/12 03:43:18;;;;;;;17.05;12.50;;;-0.40;1.00;;;;;;6279157;22;20176;-82
2022/03/12 03:45:49;;;;;;;16.02;11.45;;;-0.50;1.00;;;;;;6279193;22;20245;-82
2022/03/12 03:48:19;;;;;;;18.35;11.77;;;-0.50;1.00;;;;;;6253154;22;20695;-82
2022/03/12 03:50:51;;;;;;;17.95;11.25;;;-0.50;1.00;;;;;;6280260;22;20177;-81
2022/03/12 03:53:19;;;;;;;19.80;11.85;;;-0.50;1.00;;;;;;6280769;22;20184;-82
2022/03/12 03:55:46;;;;;;;14.55;10.90;;;-0.50;1.00;;;;;;6279267;22;20173;-82
2022/03/12 03:58:14;;;;;;;14.20;11.00;;;-0.60;1.00;;;;;;6277201;22;20205;-82
2022/03/12 04:00:52;;;;;;;16.58;11.70;;;-0.60;1.00;;;;;;6279280;22;20182;-82
2022/03/12 04:03:21;;;;;;;15.65;10.88;;;-0.60;1.00;;;;;;6280338;22;20181;-80
2022/03/12 04:05:50;;;;;;;17.50;12.18;;;-0.60;1.00;;;;;;6279857;22;20181;-81
2022/03/12 04:08:17;;;;;;;17.23;11.45;;;-0.60;1.00;;;;;;6252432;22;20181;-81
2022/03/12 04:10:44;;;;;;;15.95;11.75;;;-0.60;1.00;;;;;;6253178;22;20177;-81
2022/03/12 04:13:16;;;;;;;21.63;12.13;;;-0.60;1.00;;;;;;6277736;22;20208;-81
2022/03/12 04:15:47;;;;;;;16.77;11.77;;;-0.60;1.00;;;;;;6248930;22;20212;-81
2022/03/12 04:18:15;;;;;;;18.00;11.60;;;-0.60;1.00;;;;;;6276009;22;20189;-81
2022/03/12 04:20:46;;;;;;;16.88;11.32;;;-0.60;1.00;;;;;;6243177;22;20249;-81
2022/03/12 04:23:19;;;;;;;16.65;11.73;;;-0.60;1.00;;;;;;6240214;22;20192;-82
2022/03/12 04:25:46;;;;;;;18.83;12.07;;;-0.60;1.00;;;;;;6264230;22;20214;-81
2022/03/12 04:28:13;;;;;;;15.63;11.25;;;-0.60;1.00;;;;;;6262659;22;20245;-82
2022/03/12 04:30:40;;;;;;;17.40;11.68;;;-0.70;1.00;;;;;;6249420;22;20197;-81
2022/03/12 04:33:08;;;;;;;14.50;12.38;;;-0.70;1.00;;;;;;6247522;22;20197;-82
2022/03/12 04:35:35;;;;;;;16.95;11.60;;;-0.70;1.00;;;;;;6217779;22;20268;-82
2022/03/12 04:38:04;;;;;;;17.05;11.02;;;-0.70;1.00;;;;;;6248778;22;20263;-82
2022/03/12 04:40:32;;;;;;;15.15;12.40;;;-0.70;1.00;;;;;;6250296;22;20197;-81
2022/03/12 04:42:59;;;;;;;14.32;11.10;;;-0.70;1.00;;;;;;6248720;22;20197;-83
2022/03/12 04:45:28;;;;;;;17.98;12.00;;;-0.70;1.00;;;;;;6250414;22;20193;-82
2022/03/12 04:47:55;;;;;;;15.70;11.77;;;-0.70;1.00;;;;;;6245509;22;20231;-83
2022/03/12 04:50:23;;;;;;;19.90;12.77;;;-0.70;1.00;;;;;;6250626;22;20232;-83
2022/03/12 04:52:53;;;;;;;14.20;11.50;;;-0.70;1.00;;;;;;6245653;22;20189;-82
2022/03/12 04:55:26;;;;;;;18.67;12.50;;;-0.70;1.00;;;;;;6246364;22;20998;-82
2022/03/12 04:57:54;;;;;;;16.17;11.30;;;-0.80;1.00;;;;;;6258332;22;20211;-82
2022/03/12 05:00:25;;;;;;;16.13;12.13;;;-0.70;1.00;;;;;;6246686;22;20193;-82
2022/03/12 05:02:55;;;;;;;16.98;11.40;;;-0.80;1.00;;;;;;6246108;22;20181;-82
2022/03/12 05:05:22;;;;;;;14.57;12.13;;;-0.80;1.00;;;;;;6246854;22;20185;-82
2022/03/12 05:07:49;;;;;;;18.58;13.20;;;-0.80;1.00;;;;;;6244957;22;20694;-82
2022/03/12 05:10:18;;;;;;;19.13;13.00;;;-0.80;1.00;;;;;;6256159;22;20203;-82
2022/03/12 05:12:48;;;;;;;20.67;14.07;;;-0.80;1.00;;;;;;6271522;22;20256;-82
2022/03/12 05:15:17;;;;;;;18.27;13.77;;;-0.70;1.00;;;;;;6243286;22;20201;-82
2022/03/12 05:17:47;;;;;;;20.33;15.07;;;-0.80;1.00;;;;;;6269593;22;20185;-82
2022/03/12 05:20:20;;;;;;;19.13;13.15;;;-0.80;1.00;;;;;;6268505;22;20241;-82
2022/03/12 05:22:47;;;;;;;19.83;14.45;;;-0.80;1.00;;;;;;6268572;22;20453;-82
2022/03/12 05:25:15;;;;;;;19.35;14.85;;;-0.80;1.00;;;;;;6241294;22;20267;-83
2022/03/12 05:27:42;;;;;;;21.95;15.02;;;-0.80;1.00;;;;;;6271012;22;20259;-82
2022/03/12 05:30:12;;;;;;;19.55;14.05;;;-0.80;1.00;;;;;;6275579;22;20197;-82
2022/03/12 05:35:31;;;;;;;20.05;13.30;;;-0.80;1.00;;;;;;6270508;22;20192;-83
2022/03/12 05:37:58;;;;;;;20.45;13.57;;;-0.80;1.00;;;;;;6238540;22;20216;-81
2022/03/12 05:40:28;;;;;;;20.98;14.25;;;-0.80;1.00;;;;;;6269055;22;20204;-81
2022/03/12 05:42:58;;;;;;;20.45;13.18;;;-0.80;1.00;;;;;;6269947;22;20248;-82
2022/03/12 05:45:26;;;;;;;22.40;13.38;;;-0.80;1.00;;;;;;6265806;22;20189;-81
2022/03/12 05:47:53;;;;;;;16.30;13.57;;;-0.80;1.00;;;;;;6239313;22;20177;-81
2022/03/12 05:50:21;;;;;;;17.00;12.63;;;-0.80;1.00;;;;;;6268438;22;20189;-81
2022/03/12 05:52:52;;;;;;;18.33;12.63;;;-0.80;1.00;;;;;;6270863;22;20191;-82
2022/03/12 05:55:21;;;;;;;15.55;12.75;;;-0.70;1.00;;;;;;6239100;22;20193;-82
2022/03/12 05:57:49;;;;;;;17.98;11.95;;;-0.70;1.00;;;;;;6256327;22;20201;-83
2022/03/12 06:00:18;;;;;;;19.35;12.95;;;-0.70;1.00;;;;;;6253376;22;20189;-83
2022/03/12 06:02:51;;;;;;;17.23;12.88;;;-0.70;1.00;;;;;;6254570;22;20193;-83
2022/03/12 06:05:19;;;;;;;19.33;12.00;;;-0.70;1.00;;;;;;6252931;22;20182;-82
2022/03/12 06:07:46;;;;;;;20.02;12.45;;;-0.70;1.00;;;;;;6251955;22;20312;-83
2022/03/12 06:10:16;;;;;;;21.55;13.90;;;-0.70;1.00;;;;;;6226150;22;20260;-84
2022/03/12 06:12:45;;;;;;;19.23;12.80;;;-0.60;1.00;;;;;;6254033;22;21368;-82
2022/03/12 06:15:14;;;;;;;16.58;12.18;;;-0.60;1.00;;;;;;6255344;22;20189;-82
2022/03/12 06:17:41;;;;;;;20.25;12.95;;;-0.50;1.00;;;;;;6263306;22;20227;-83
2022/03/12 06:20:11;;;;;;;16.13;12.00;;;-0.50;1.00;;;;;;6260255;22;20231;-83
2022/03/12 06:22:39;;;;;;;18.35;12.35;;;-0.40;1.00;;;;;;6258658;22;20216;-83
2022/03/12 06:25:06;;;;;;;19.60;13.60;;;-0.40;1.00;;;;;;6218923;22;20201;-83
2022/03/12 06:27:34;;;;;;;21.13;14.38;;;-0.30;1.00;;;;;;6252696;22;20678;-83
2022/03/12 06:30:02;;;;;;;16.45;12.27;;;-0.20;1.00;;;;;;6261096;22;20181;-85
2022/03/12 06:32:31;;;;;;;20.80;14.25;;;-0.20;1.00;;;;;;6229668;22;20525;-82
2022/03/12 06:34:59;;;;;;;23.23;13.88;;;-0.10;1.00;;;;;;6258489;22;20240;-82
2022/03/12 06:37:28;;;;;;;21.23;13.52;;;0.00;1.00;;;;;;6254537;22;20193;-83
2022/03/12 06:39:55;;;;;;;19.77;13.13;;;0.10;1.00;;;;;;6249968;22;20310;-84
2022/03/12 06:42:23;;;;;;;14.85;11.95;;;0.10;1.00;;;;;;6251136;22;20181;-84
2022/03/12 06:44:54;;;;;;;15.63;12.40;;;0.20;1.00;;;;;;6248712;22;21058;-83
2022/03/12 06:47:22;;;;;;;20.52;12.82;;;0.30;1.00;;;;;;6245700;22;20279;-85
2022/03/12 06:49:49;;;;;;;18.05;12.77;;;0.40;1.00;;;;;;6221635;22;20712;-83
2022/03/12 06:52:20;;;;;;;23.67;13.30;;;0.40;1.00;;;;;;6247121;22;20188;-81
2022/03/12 06:54:48;;;;;;;17.65;12.90;;;0.50;1.00;;;;;;6251317;22;20922;-81
2022/03/12 06:57:14;;;;;;;18.65;12.98;;;0.60;1.00;;;;;;6244731;22;20244;-82
2022/03/12 06:59:41;;;;;;;18.63;13.40;;;0.60;1.00;;;;;;6250494;22;21206;-80
2022/03/12 07:02:08;;;;;;;16.67;12.70;;;0.70;1.00;;;;;;6251433;22;20193;-80
2022/03/12 07:04:35;;;;;;;17.67;12.98;;;0.80;1.00;;;;;;6251566;22;21054;-81
2022/03/12 07:07:02;;;;;;;20.50;13.77;;;0.90;1.00;;;;;;6248138;22;20203;-81
2022/03/12 07:09:29;;;;;;;16.30;13.05;;;1.00;1.00;;;;;;6250120;22;20193;-81
2022/03/12 07:11:58;;;;;;;18.00;12.63;;;1.10;1.00;;;;;;6247815;22;20473;-80
2022/03/12 07:14:26;;;;;;;17.48;12.07;;;1.20;1.00;;;;;;6251427;22;20189;-80
2022/03/12 07:16:53;;;;;;;15.95;11.85;;;1.40;1.00;;;;;;6244833;22;20193;-82
2022/03/12 07:19:20;;;;;;;17.73;12.85;;;1.50;1.00;;;;;;6252851;22;20359;-82
2022/03/12 07:21:46;;;;;;;15.25;11.35;;;1.70;1.00;;;;;;6251556;22;20190;-82
2022/03/12 07:24:13;;;;;;;17.98;12.30;;;1.80;1.00;;;;;;6248250;22;20298;-82
2022/03/12 07:26:40;;;;;;;20.55;13.85;;;2.00;1.00;;;;;;6270943;22;20208;-80
2022/03/12 07:29:09;;;;;;;15.00;11.90;;;2.10;1.00;;;;;;6276421;22;20236;-80
2022/03/12 07:31:37;;;;;;;19.13;13.23;;;2.20;1.00;;;;;;6273572;22;20201;-81
2022/03/12 07:34:05;;;;;;;16.05;11.63;;;2.30;1.00;;;;;;6261102;22;20227;-81
2022/03/12 07:36:32;;;;;;;20.95;12.77;;;2.30;1.00;;;;;;6230888;22;20201;-81
2022/03/12 07:39:02;;;;;;;18.08;13.38;;;2.40;1.00;;;;;;6228490;22;20197;-82
2022/03/12 07:41:29;;;;;;;16.08;13.77;;;2.50;1.00;;;;;;6227551;22;20282;-79
2022/03/12 07:43:56;;;;;;;17.13;11.63;;;2.60;1.00;;;;;;6247821;22;20221;-80
2022/03/12 07:46:25;;;;;;;15.43;11.68;;;2.70;1.00;;;;;;6250569;22;20372;-82
2022/03/12 07:48:52;;;;;;;18.13;12.38;;;2.90;1.00;;;;;;6268113;22;20189;-81
2022/03/12 07:51:18;;;;;;;18.85;12.23;;;3.10;1.00;;;;;;6273560;22;20201;-81
2022/03/12 07:53:45;;;;;;;16.25;11.85;;;3.20;1.00;;;;;;6272054;22;20193;-81
2022/03/12 07:56:12;;;;;;;13.55;11.65;;;3.30;1.00;;;;;;6223437;22;20189;-80
2022/03/12 07:58:39;;;;;;;16.25;11.80;;;3.50;1.00;;;;;;6249719;22;20607;-82
2022/03/12 08:01:08;;;;;;;14.75;11.80;;;3.60;1.00;;;;;;6242555;22;20193;-82
2022/03/12 08:03:36;;;;;;;18.23;13.15;;;3.70;1.00;;;;;;6245249;22;20640;-81
2022/03/12 08:06:03;;;;;;;16.70;11.02;;;3.90;1.00;;;;;;6218394;22;20259;-81
2022/03/12 08:08:30;;;;;;;17.63;12.73;;;4.00;1.00;;;;;;6242811;22;20185;-81
2022/03/12 08:13:43;;;;;;;18.42;12.57;;;4.20;1.00;;;;;;6245185;22;20188;-83
2022/03/12 08:16:13;;;;;;;16.45;10.98;;;4.30;1.00;;;;;;6219545;22;20248;-82
2022/03/12 08:18:41;;;;;;;19.45;11.85;;;4.50;1.00;;;;;;6247242;22;20190;-80
2022/03/12 08:21:10;;;;;;;14.45;10.65;;;4.70;1.00;;;;;;6243222;22;20186;-81
2022/03/12 08:23:41;;;;;;;12.68;10.18;;;4.80;1.00;;;;;;6252947;22;20304;-80
2022/03/12 08:26:08;;;;;;;15.65;10.85;;;5.00;1.00;;;;;;6250239;22;20198;-81
2022/03/12 08:28:35;;;;;;;14.43;10.85;;;5.10;1.00;;;;;;6254810;22;20185;-81
2022/03/12 08:31:02;;;;;;;12.60;10.32;;;5.20;1.00;;;;;;6247154;22;20190;-82
2022/03/12 08:33:29;;;;;;;15.57;10.98;;;5.40;1.00;;;;;;6243752;22;20224;-83
2022/03/12 08:35:58;;;;;;;11.18;9.63;;;5.60;1.00;;;;;;6243506;22;20189;-82
2022/03/12 08:38:26;;;;;;;13.38;9.45;;;5.70;1.00;;;;;;6253595;22;20273;-81
2022/03/12 08:40:53;;;;;;;12.40;9.35;;;5.70;1.00;;;;;;6253947;22;20195;-81
2022/03/12 08:43:21;;;;;;;12.57;8.60;;;5.60;1.00;;;;;;6256102;22;21050;-81
2022/03/12 08:45:49;;;;;;;16.67;10.15;;;5.80;1.00;;;;;;6245283;22;20213;-79
2022/03/12 08:48:15;;;;;;;13.23;9.48;;;5.80;1.00;;;;;;6264217;22;20654;-80
2022/03/12 08:50:44;;;;;;;10.15;9.13;;;6.10;1.00;;;;;;6257907;22;20690;-81
2022/03/12 08:53:12;;;;;;;13.70;8.95;;;6.20;1.00;;;;;;6248006;22;20186;-81
2022/03/12 08:55:40;;;;;;;13.98;9.75;;;6.30;1.00;;;;;;6249192;22;20185;-82
2022/03/12 08:58:07;;;;;;;13.23;10.60;;;6.50;1.00;;;;;;6250092;22;20197;-82
2022/03/12 09:00:34;;;;;;;13.95;9.55;;;6.80;1.00;;;;;;6247514;22;20229;-80
2022/03/12 09:03:01;;;;;;;9.85;8.60;;;7.20;1.00;;;;;;6242733;22;20287;-81
2022/03/12 09:05:31;;;;;;;11.02;9.27;;;7.60;1.00;;;;;;6220055;22;20201;-80
2022/03/12 09:08:01;;;;;;;12.35;9.32;;;8.30;1.00;;;;;;6221224;22;20293;-80
2022/03/12 09:10:29;;;;;;;12.05;9.40;;;9.20;1.00;;;;;;6245343;22;20185;-83
2022/03/12 09:12:55;;;;;;;11.73;9.18;;;10.20;1.00;;;;;;6244098;22;20199;-80
2022/03/12 09:15:24;;;;;;;13.37;10.10;;;11.20;1.00;;;;;;6241313;22;20198;-80
2022/03/12 09:17:51;;;;;;;14.47;9.60;;;12.30;1.00;;;;;;6244080;22;20520;-81
2022/03/12 09:20:20;;;;;;;11.00;9.30;;;13.10;1.00;;;;;;6245642;22;20515;-81
2022/03/12 09:22:48;;;;;;;11.90;9.47;;;13.50;1.00;;;;;;6246851;22;20468;-80
2022/03/12 09:25:27;;;;;;;16.60;10.37;;;13.60;1.00;;;;;;6260949;22;20425;-80
2022/03/12 09:27:59;;;;;;;13.37;9.63;;;13.70;1.00;;;;;;6245125;22;20427;-81
2022/03/12 09:30:28;;;;;;;11.07;9.17;;;14.40;1.00;;;;;;6243512;22;20466;-80
2022/03/12 09:32:56;;;;;;;13.63;9.30;;;14.80;1.00;;;;;;6271316;22;20385;-79
2022/03/12 09:35:24;;;;;;;17.27;11.00;;;15.40;1.00;;;;;;6273529;22;20365;-81
2022/03/12 09:37:51;;;;;;;12.33;10.07;;;15.80;1.00;;;;;;6271477;22;20415;-81
2022/03/12 09:40:18;;;;;;;14.33;10.10;;;16.40;1.00;;;;;;6267045;22;20400;-81
2022/03/12 09:42:46;;;;;;;16.67;10.00;;;16.60;1.00;;;;;;6240920;22;20372;-80
2022/03/12 09:45:15;;;;;;;13.50;10.77;;;16.40;1.00;;;;;;6264258;22;20348;-78
2022/03/12 09:47:43;;;;;;;9.77;8.53;;;16.40;1.00;;;;;;6265912;22;20424;-81
2022/03/12 09:50:11;;;;;;;9.13;8.10;;;16.80;1.00;;;;;;6227577;22;20409;-77
2022/03/12 09:52:45;;;;;;;10.43;8.97;;;17.40;1.00;;;;;;6264219;22;20412;-80
2022/03/12 09:55:18;;;;;;;9.93;8.17;;;17.80;1.00;;;;;;6232388;22;20428;-80
2022/03/12 09:57:47;;;;;;;8.53;7.67;;;17.90;1.00;;;;;;6236158;22;20457;-79
2022/03/12 10:00:17;;;;;;;8.67;7.73;;;17.50;1.00;;;;;;6237778;22;20400;-81
2022/03/12 10:02:44;;;;;;;8.53;7.63;;;18.20;1.00;;;;;;6248909;22;20377;-79
2022/03/12 10:05:13;;;;;;;10.73;8.20;;;18.60;1.00;;;;;;6245648;22;20516;-80
2022/03/12 10:07:41;;;;;;;10.17;7.60;;;18.90;1.00;;;;;;6238343;22;20987;-80
2022/03/12 10:10:12;;;;;;;8.77;7.37;;;18.70;1.00;;;;;;6239874;22;20617;-79
2022/03/12 10:12:38;;;;;;;9.20;8.00;;;18.00;1.00;;;;;;6238589;22;20423;-80
2022/03/12 10:15:06;;;;;;;10.60;8.20;;;18.70;1.00;;;;;;6243628;22;20416;-81
2022/03/12 10:17:34;;;;;;;9.13;8.07;;;20.20;1.00;;;;;;6244491;22;20411;-80
2022/03/12 10:20:01;;;;;;;9.63;8.37;;;21.00;1.00;;;;;;6246358;22;20385;-79
2022/03/12 10:22:28;;;;;;;10.73;7.50;;;20.50;1.00;;;;;;6247713;22;20388;-80
2022/03/12 10:24:55;;;;;;;11.60;7.90;;;20.70;1.00;;;;;;6248364;22;20498;-80
2022/03/12 10:27:22;;;;;;;9.70;8.20;;;20.60;1.00;;;;;;6260857;22;20423;-80
2022/03/12 10:29:49;;;;;;;9.27;8.30;;;20.50;1.00;;;;;;6258056;22;20528;-77
2022/03/12 10:32:24;;;;;;;8.90;7.60;;;20.50;1.00;;;;;;6270527;22;20930;-78
2022/03/12 10:34:56;;;;;;;10.13;7.73;;;21.00;1.00;;;;;;6267726;22;20563;-79
2022/03/12 10:37:25;;;;;;;10.90;7.67;;;20.90;1.00;;;;;;6250640;22;20487;-78
2022/03/12 10:40:03;;;;;;;9.43;7.80;;;20.60;1.00;;;;;;6249139;22;21726;-79
2022/03/12 10:42:30;;;;;;;8.27;7.17;;;20.50;1.00;;;;;;6250503;22;20392;-80
2022/03/12 10:45:06;;;;;;;10.20;7.90;;;20.60;1.00;;;;;;6249601;22;20440;-80
2022/03/12 10:47:38;;;;;;;10.77;8.23;;;21.10;1.00;;;;;;6226173;22;20456;-82
2022/03/12 10:50:12;;;;;;;10.43;7.77;;;21.60;1.00;;;;;;6253580;22;21333;-82
2022/03/12 10:52:45;;;;;;;10.80;8.30;;;21.40;1.00;;;;;;6226500;22;20506;-82
2022/03/12 10:55:15;;;;;;;9.13;7.70;;;20.90;1.00;;;;;;6251799;22;20409;-80
2022/03/12 10:58:07;;;;;;;8.70;7.40;;;21.00;1.00;;;;;;6263929;22;20962;-82
2022/03/12 11:00:37;;;;;;;8.97;8.07;;;21.40;1.00;;;;;;6260597;22;20365;-82
2022/03/12 11:03:06;;;;;;;9.00;8.10;;;22.40;1.00;;;;;;6257943;22;20504;-82
2022/03/12 11:05:36;;;;;;;9.17;7.53;;;22.50;1.00;;;;;;6253297;22;20454;-82
2022/03/12 11:08:18;;;;;;;9.67;8.10;;;22.00;1.00;;;;;;6256158;22;20385;-83
2022/03/12 11:10:53;;;;;;;8.40;6.40;;;22.10;1.00;;;;;;6254820;22;20400;-79
2022/03/12 11:13:34;;;;;;;7.33;6.60;;;22.00;1.00;;;;;;6255416;22;20471;-81
2022/03/12 11:16:18;;;;;;;7.97;6.80;;;22.10;1.00;;;;;;6239234;22;20420;-81
2022/03/12 11:19:07;;;;;;;7.03;6.30;;;22.50;1.00;;;;;;6278840;22;20359;-80
2022/03/12 11:21:37;;;;;;;9.57;6.80;;;23.50;1.00;;;;;;6264717;22;20373;-79
2022/03/12 11:24:06;;;;;;;7.43;6.20;;;24.10;1.00;;;;;;6259663;22;20852;-77
2022/03/12 11:26:44;;;;;;;7.93;6.60;;;24.50;1.00;;;;;;6266429;22;20391;-78
2022/03/12 11:29:12;;;;;;;7.90;6.43;;;24.90;1.00;;;;;;6260527;22;20408;-80
2022/03/12 11:31:48;;;;;;;7.10;5.73;;;25.20;1.00;;;;;;6264355;22;20434;-77
2022/03/12 11:34:25;;;;;;;6.63;5.87;;;25.80;1.00;;;;;;6278651;22;20379;-77
2022/03/12 11:37:04;;;;;;;5.70;5.10;;;24.30;1.00;;;;;;6276742;22;20384;-76
2022/03/12 11:39:33;;;;;;;7.23;6.47;;;23.20;1.00;;;;;;6248522;22;20369;-78
2022/03/12 11:42:01;;;;;;;6.70;6.00;;;24.00;1.00;;;;;;6258946;22;20397;-79
2022/03/12 11:44:29;;;;;;;7.23;6.30;;;24.30;1.00;;;;;;6255474;22;20388;-80
2022/03/12 11:46:57;;;;;;;6.87;6.17;;;23.50;1.00;;;;;;6250668;22;20412;-79
2022/03/12 11:49:25;;;;;;;7.10;6.00;;;23.10;1.00;;;;;;6248704;22;20475;-82
2022/03/12 11:51:52;;;;;;;7.50;6.17;;;23.90;1.00;;;;;;6249498;22;20416;-82
2022/03/12 11:54:20;;;;;;;6.77;6.00;;;24.50;1.00;;;;;;6250339;22;20432;-82
2022/03/12 11:56:48;;;;;;;6.97;6.33;;;25.20;1.00;;;;;;6251120;22;20433;-82
2022/03/12 11:59:14;;;;;;;6.23;5.47;;;25.30;1.00;;;;;;6249738;22;20417;-82
2022/03/12 12:01:41;;;;;;;8.03;6.30;;;24.70;1.00;;;;;;6248903;22;20464;-80
2022/03/12 12:04:10;;;;;;;8.60;6.43;;;23.90;1.00;;;;;;6245039;22;20447;-81
2022/03/12 12:06:38;;;;;;;6.80;6.10;;;24.60;1.00;;;;;;6249546;22;20783;-79
2022/03/12 12:09:04;;;;;;;8.30;6.87;;;24.80;1.00;;;;;;6243476;22;21675;-79
2022/03/12 12:11:35;;;;;;;6.23;5.20;;;25.10;1.00;;;;;;6240393;22;20451;-78
2022/03/12 12:14:02;;;;;;;9.03;6.00;;;24.70;1.00;;;;;;6248778;22;20373;-79
2022/03/12 12:16:29;;;;;;;7.10;5.90;;;24.60;1.00;;;;;;6247425;22;20452;-78
2022/03/12 12:18:56;;;;;;;7.53;6.70;;;25.30;1.00;;;;;;6244002;22;20413;-79
2022/03/12 12:21:23;;;;;;;8.80;6.50;;;26.00;1.00;;;;;;6243774;22;20418;-77
2022/03/12 12:23:50;;;;;;;7.17;6.43;;;25.90;1.00;;;;;;6247232;22;20494;-79
2022/03/12 12:26:16;;;;;;;10.93;7.00;;;26.30;1.00;;;;;;6246139;22;20441;-78
2022/03/12 12:28:49;;;;;;;7.97;7.13;;;27.30;1.00;;;;;;6243886;22;20956;-78
2022/03/12 12:31:23;;;;;;;8.33;6.33;;;26.60;1.00;;;;;;6247917;22;20480;-78
2022/03/12 12:33:50;;;;;;;7.97;7.20;;;27.00;1.00;;;;;;6241915;22;20995;-79
2022/03/12 12:36:18;;;;;;;13.87;11.10;;;27.40;1.00;;;;;;6241074;22;20395;-80
2022/03/12 12:39:06;;;;;;;10.40;7.77;;;27.50;1.00;;;;;;6253675;22;20403;-79
2022/03/12 12:41:53;;;;;;;8.63;6.10;;;27.20;1.00;;;;;;6248420;22;20444;-77
2022/03/12 12:47:17;;;;;;;7.43;6.67;;;26.80;1.00;;;;;;5103900;27;20511;-77
2022/03/12 12:49:52;;;;;;;7.70;6.90;;;26.60;1.00;;;;;;5107814;27;20989;-76
2022/03/12 12:52:18;;;;;;;7.77;7.07;;;26.50;1.00;;;;;;5110601;27;20475;-77
2022/03/12 12:54:57;;;;;;;8.37;6.47;;;26.50;1.00;;;;;;5102370;27;21259;-76
2022/03/12 12:57:39;;;;;;;9.87;6.67;;;25.50;1.00;;;;;;5109270;27;20452;-76
2022/03/12 13:00:38;;;;;;;6.70;6.03;;;25.30;1.00;;;;;;5109192;27;20464;-79
2022/03/12 13:03:16;;;;;;;8.60;7.27;;;26.00;1.00;;;;;;5114650;27;20452;-79
2022/03/12 13:05:44;;;;;;;10.87;7.07;;;25.70;1.00;;;;;;5113313;27;20455;-79